Time,TemperatureF,DewpointF,PressureIn,WindDirection,WindDirectionDegrees,WindSpeedMPH,WindSpeedGustMPH,Humidity,HourlyPrecipIn,Conditions,Clouds,dailyrainin,SolarRadiationWatts/m^2,SoftwareType,DateUTC
2013-08-11 00:23:00,54.0,46.0,-100.00,ENE,74,3.0,4.0,75,0.00,,,0.00,1.000000,,2013-08-11 07:23:00,
2013-08-11 00:35:00,54.0,46.0,-100.00,ENE,74,3.0,4.0,75,0.00,,,0.00,1.000000,,2013-08-11 07:35:00,
2013-08-11 00:44:00,54.0,46.0,-100.00,ENE,74,3.0,4.0,75,0.00,,,0.00,1.000000,,2013-08-11 07:44:00,
2013-08-11 00:53:00,54.0,46.0,-100.00,ENE,74,3.0,4.0,75,0.00,,,0.00,1.000000,,2013-08-11 07:53:00,
2013-08-11 01:34:00,51.0,45.0,-100.00,ENE,76,5.0,6.0,79,0.00,,,0.00,1.000000,,2013-08-11 08:34:00,
2013-08-11 01:45:00,51.0,45.0,-100.00,ENE,76,5.0,6.0,79,0.00,,,0.00,1.000000,,2013-08-11 08:45:00,
2013-08-11 01:53:00,51.0,45.0,-100.00,ENE,76,5.0,6.0,79,0.00,,,0.00,1.000000,,2013-08-11 08:53:00,
2013-08-11 02:34:00,51.0,44.0,-100.00,ENE,75,4.0,6.0,78,0.00,,,0.00,1.000000,,2013-08-11 09:34:00,
2013-08-11 02:43:00,51.0,44.0,-100.00,ENE,75,4.0,6.0,78,0.00,,,0.00,1.000000,,2013-08-11 09:43:00,
2013-08-11 02:54:00,51.0,44.0,-100.00,ENE,75,4.0,6.0,78,0.00,,,0.00,1.000000,,2013-08-11 09:54:00,
2013-08-11 03:24:00,50.0,43.0,-100.00,ENE,77,3.0,7.0,78,0.00,,,0.00,1.000000,,2013-08-11 10:24:00,
2013-08-11 03:33:00,50.0,43.0,-100.00,ENE,77,3.0,7.0,78,0.00,,,0.00,1.000000,,2013-08-11 10:33:00,
2013-08-11 03:43:00,50.0,43.0,-100.00,ENE,77,3.0,7.0,78,0.00,,,0.00,1.000000,,2013-08-11 10:43:00,
2013-08-11 03:53:00,50.0,43.0,-100.00,ENE,77,3.0,7.0,78,0.00,,,0.00,1.000000,,2013-08-11 10:53:00,
2013-08-11 04:35:00,48.0,44.0,-100.00,East,91,2.0,4.0,85,0.00,,,-99.99,1.000000,,2013-08-11 11:35:00,
2013-08-11 04:45:00,48.0,44.0,-100.00,East,91,2.0,4.0,85,0.00,,,-99.99,1.000000,,2013-08-11 11:45:00,
2013-08-11 04:55:00,48.0,44.0,-100.00,East,91,2.0,4.0,85,0.00,,,-99.99,1.000000,,2013-08-11 11:55:00,
2013-08-11 05:43:00,45.0,42.0,-100.00,East,82,4.0,5.0,89,0.00,,,-99.99,1.000000,,2013-08-11 12:43:00,
2013-08-11 05:52:00,45.0,42.0,-100.00,East,82,4.0,5.0,89,0.00,,,-99.99,1.000000,,2013-08-11 12:52:00,
2013-08-11 06:24:00,44.0,42.0,-100.00,ENE,75,4.0,5.0,91,0.00,,,-99.99,1.000000,,2013-08-11 13:24:00,
2013-08-11 06:36:00,44.0,42.0,-100.00,ENE,75,4.0,5.0,91,0.00,,,-99.99,1.000000,,2013-08-11 13:36:00,
2013-08-11 06:44:00,44.0,42.0,-100.00,ENE,75,4.0,5.0,91,0.00,,,-99.99,1.000000,,2013-08-11 13:44:00,
2013-08-11 07:45:00,44.0,41.0,-100.00,ENE,67,7.0,9.0,88,0.00,,,0.00,22.000000,,2013-08-11 14:45:00,
2013-08-11 08:45:00,49.0,42.0,-100.00,ENE,60,6.0,9.0,77,0.00,,,0.00,121.000000,,2013-08-11 15:45:00,
2013-08-11 08:54:00,49.0,42.0,-100.00,ENE,60,6.0,9.0,77,0.00,,,0.00,121.000000,,2013-08-11 15:54:00,
2013-08-11 09:35:00,57.0,44.0,-100.00,NE,39,4.0,8.0,61,0.00,,,0.00,344.000000,,2013-08-11 16:35:00,
2013-08-11 09:44:00,57.0,44.0,-100.00,NE,39,4.0,8.0,61,0.00,,,0.00,344.000000,,2013-08-11 16:44:00,
2013-08-11 09:54:00,57.0,44.0,-100.00,NE,39,4.0,8.0,61,0.00,,,0.00,344.000000,,2013-08-11 16:54:00,
2013-08-11 10:24:00,64.0,45.0,-100.00,West,260,3.0,6.0,51,0.00,,,0.00,519.000000,,2013-08-11 17:24:00,
2013-08-11 10:33:00,64.0,45.0,-100.00,West,260,3.0,6.0,51,0.00,,,0.00,519.000000,,2013-08-11 17:33:00,
2013-08-11 10:44:00,64.0,45.0,-100.00,West,260,3.0,6.0,51,0.00,,,0.00,519.000000,,2013-08-11 17:44:00,
2013-08-11 10:53:00,64.0,45.0,-100.00,West,260,3.0,6.0,51,0.00,,,0.00,519.000000,,2013-08-11 17:53:00,
2013-08-11 11:37:00,67.0,47.0,-100.00,West,260,5.0,10.0,48,0.00,,,0.00,698.000000,,2013-08-11 18:37:00,
2013-08-11 11:45:00,67.0,47.0,-100.00,West,260,5.0,10.0,48,0.00,,,0.00,698.000000,,2013-08-11 18:45:00,
2013-08-11 11:53:00,67.0,47.0,-100.00,West,260,5.0,10.0,48,0.00,,,0.00,698.000000,,2013-08-11 18:53:00,
2013-08-11 12:23:00,71.0,47.0,-100.00,SW,226,7.0,13.0,42,0.00,,,0.00,829.000000,,2013-08-11 19:23:00,
2013-08-11 12:32:00,71.0,47.0,-100.00,SW,226,7.0,13.0,42,0.00,,,0.00,829.000000,,2013-08-11 19:32:00,
2013-08-11 12:46:00,71.0,47.0,-100.00,SW,226,7.0,13.0,42,0.00,,,0.00,829.000000,,2013-08-11 19:46:00,
2013-08-11 12:55:00,71.0,47.0,-100.00,SW,226,7.0,13.0,42,0.00,,,0.00,829.000000,,2013-08-11 19:55:00,
2013-08-11 13:24:00,72.0,44.0,-100.00,West,270,8.0,14.0,36,0.00,,,0.00,906.000000,,2013-08-11 20:24:00,
2013-08-11 13:45:00,72.0,44.0,-100.00,West,270,8.0,14.0,36,0.00,,,0.00,906.000000,,2013-08-11 20:45:00,
2013-08-11 13:53:00,72.0,44.0,-100.00,West,270,8.0,14.0,36,0.00,,,0.00,906.000000,,2013-08-11 20:53:00,
2013-08-11 14:45:00,75.0,41.0,-100.00,SW,231,7.0,17.0,30,0.00,,,0.00,928.000000,,2013-08-11 21:45:00,
2013-08-11 14:53:00,75.0,41.0,-100.00,SW,231,7.0,17.0,30,0.00,,,0.00,928.000000,,2013-08-11 21:53:00,
2013-08-11 15:24:00,77.0,33.0,-100.00,SW,221,10.0,18.0,20,0.00,,,0.00,903.000000,,2013-08-11 22:24:00,
2013-08-11 15:45:00,77.0,33.0,-100.00,SW,221,10.0,18.0,20,0.00,,,0.00,903.000000,,2013-08-11 22:45:00,
2013-08-11 15:53:00,77.0,33.0,-100.00,SW,221,10.0,18.0,20,0.00,,,0.00,903.000000,,2013-08-11 22:53:00,
2013-08-11 16:25:00,78.0,37.0,-100.00,West,275,9.0,18.0,23,0.00,,,0.00,822.000000,,2013-08-11 23:25:00,
2013-08-11 16:32:00,78.0,37.0,-100.00,West,275,9.0,18.0,23,0.00,,,0.00,822.000000,,2013-08-11 23:32:00,
2013-08-11 16:44:00,78.0,37.0,-100.00,West,275,9.0,18.0,23,0.00,,,0.00,822.000000,,2013-08-11 23:44:00,
2013-08-11 16:54:00,78.0,37.0,-100.00,West,275,9.0,18.0,23,0.00,,,0.00,822.000000,,2013-08-11 23:54:00,
2013-08-11 17:23:00,77.0,44.0,-100.00,West,280,9.0,16.0,31,0.00,,,-99.99,674.000000,,2013-08-12 00:23:00,
2013-08-11 17:34:00,77.0,44.0,-100.00,West,280,9.0,16.0,31,0.00,,,-99.99,674.000000,,2013-08-12 00:34:00,
2013-08-11 17:45:00,77.0,44.0,-100.00,West,280,9.0,16.0,31,0.00,,,-99.99,674.000000,,2013-08-12 00:45:00,
2013-08-11 17:53:00,77.0,44.0,-100.00,West,280,9.0,16.0,31,0.00,,,-99.99,674.000000,,2013-08-12 00:53:00,
2013-08-11 18:23:00,75.0,42.0,-100.00,NW,313,9.0,16.0,31,0.00,,,0.00,494.000000,,2013-08-12 01:23:00,
2013-08-11 18:34:00,75.0,42.0,-100.00,NW,313,9.0,16.0,31,0.00,,,0.00,494.000000,,2013-08-12 01:34:00,
2013-08-11 18:43:00,75.0,42.0,-100.00,NW,313,9.0,16.0,31,0.00,,,0.00,494.000000,,2013-08-12 01:43:00,
2013-08-11 18:53:00,75.0,42.0,-100.00,NW,313,9.0,16.0,31,0.00,,,0.00,494.000000,,2013-08-12 01:53:00,
2013-08-11 19:34:00,72.0,40.0,-100.00,NW,318,9.0,17.0,31,0.00,,,0.00,298.000000,,2013-08-12 02:34:00,
2013-08-11 19:52:00,72.0,40.0,-100.00,NW,318,9.0,17.0,31,0.00,,,0.00,298.000000,,2013-08-12 02:52:00,
2013-08-11 20:24:00,68.0,41.0,-100.00,NW,310,7.0,15.0,38,0.00,,,0.00,110.000000,,2013-08-12 03:24:00,
2013-08-11 20:35:00,68.0,41.0,-100.00,NW,310,7.0,15.0,38,0.00,,,0.00,110.000000,,2013-08-12 03:35:00,
2013-08-11 20:53:00,68.0,41.0,-100.00,NW,310,7.0,15.0,38,0.00,,,0.00,110.000000,,2013-08-12 03:53:00,
2013-08-11 21:22:00,64.0,43.0,-100.00,WNW,292,6.0,10.0,46,0.00,,,0.00,5.000000,,2013-08-12 04:22:00,
2013-08-11 21:33:00,64.0,43.0,-100.00,WNW,292,6.0,10.0,46,0.00,,,0.00,5.000000,,2013-08-12 04:33:00,
2013-08-11 21:43:00,64.0,43.0,-100.00,WNW,292,6.0,10.0,46,0.00,,,0.00,5.000000,,2013-08-12 04:43:00,
2013-08-11 21:52:00,64.0,43.0,-100.00,WNW,292,6.0,10.0,46,0.00,,,0.00,5.000000,,2013-08-12 04:52:00,
2013-08-11 22:22:00,62.0,45.0,-100.00,NNW,330,4.0,9.0,53,0.00,,,0.00,1.000000,,2013-08-12 05:22:00,
2013-08-11 22:32:00,62.0,45.0,-100.00,NNW,330,4.0,9.0,53,0.00,,,0.00,1.000000,,2013-08-12 05:32:00,
2013-08-11 22:43:00,62.0,45.0,-100.00,NNW,330,4.0,9.0,53,0.00,,,0.00,1.000000,,2013-08-12 05:43:00,
2013-08-11 22:52:00,62.0,45.0,-100.00,NNW,330,4.0,9.0,53,0.00,,,0.00,1.000000,,2013-08-12 05:52:00,
2013-08-11 23:22:00,58.0,43.0,-100.00,East,88,4.0,6.0,58,0.00,,,0.00,1.000000,,2013-08-12 06:22:00,
2013-08-11 23:32:00,58.0,43.0,-100.00,East,88,4.0,6.0,58,0.00,,,0.00,1.000000,,2013-08-12 06:32:00,
2013-08-11 23:42:00,58.0,43.0,-100.00,East,88,4.0,6.0,58,0.00,,,0.00,1.000000,,2013-08-12 06:42:00,
2013-08-11 23:52:00,58.0,43.0,-100.00,East,88,4.0,6.0,58,0.00,,,0.00,1.000000,,2013-08-12 06:52:00,